Time;durP1;ratioP1;P1;durP2;ratioP2;P2;SDS_P1;SDS_P2;PMS_P1;PMS_P2;Temp;Humidity;BMP_temperature;BMP_pressure;BME280_temperature;BME280_humidity;BME280_pressure;Samples;Min_cycle;Max_cycle;Signal;HPM_P1;HPM_P2
2024/02/24 00:00:38;;;;;;;18.13;10.73;;;;;22.40;98397.00;;;;2047414;28;20215;-70
2024/02/24 00:01:38;;;;;;;17.90;10.30;;;;;22.40;98402.00;;;;2069908;28;20665;-70
2024/02/24 00:02:38;;;;;;;16.50;10.87;;;;;22.40;98398.00;;;;2070014;28;20582;-70
2024/02/24 00:03:39;;;;;;;15.60;10.77;;;;;22.40;98398.00;;;;2070595;28;20569;-70
2024/02/24 00:04:39;;;;;;;16.00;11.03;;;;;22.40;98396.00;;;;2069867;28;20937;-70
2024/02/24 00:05:39;;;;;;;15.57;11.00;;;;;22.40;98403.00;;;;2060821;28;20690;-71
2024/02/24 00:06:41;;;;;;;15.50;10.50;;;;;22.40;98409.00;;;;2069843;28;20225;-70
2024/02/24 00:07:41;;;;;;;15.18;10.63;;;;;22.40;98392.00;;;;2070833;28;20222;-70
2024/02/24 00:08:42;;;;;;;16.13;10.20;;;;;22.40;98396.00;;;;2069493;28;20218;-70
2024/02/24 00:09:43;;;;;;;15.13;9.60;;;;;22.40;98405.00;;;;2070716;28;20271;-70
2024/02/24 00:10:43;;;;;;;15.27;10.10;;;;;22.40;98401.00;;;;2060772;28;20229;-70
2024/02/24 00:11:43;;;;;;;15.60;9.73;;;;;22.40;98397.00;;;;2069658;28;20442;-70
2024/02/24 00:12:44;;;;;;;15.63;9.70;;;;;22.40;98400.00;;;;2070513;28;20206;-70
2024/02/24 00:13:44;;;;;;;13.87;10.00;;;;;22.40;98392.00;;;;2069964;28;20210;-70
2024/02/24 00:14:44;;;;;;;16.27;9.90;;;;;22.40;98390.00;;;;2069115;28;20210;-70
2024/02/24 00:15:45;;;;;;;14.80;9.73;;;;;22.40;98396.00;;;;2060824;28;20243;-70
2024/02/24 00:16:45;;;;;;;17.13;9.20;;;;;22.30;98387.00;;;;2070122;28;20219;-70
2024/02/24 00:17:45;;;;;;;14.77;9.13;;;;;22.30;98397.00;;;;2062000;28;20222;-70
2024/02/24 00:18:46;;;;;;;14.97;9.67;;;;;22.30;98397.00;;;;2060920;28;20223;-70
2024/02/24 00:19:46;;;;;;;13.40;8.27;;;;;22.30;98389.00;;;;2070481;28;20246;-70
2024/02/24 00:20:46;;;;;;;14.87;9.17;;;;;22.30;98388.00;;;;2060554;28;20226;-70
2024/02/24 00:21:47;;;;;;;13.53;9.40;;;;;22.30;98395.00;;;;2070143;28;20217;-70
2024/02/24 00:22:47;;;;;;;15.60;9.30;;;;;22.30;98394.00;;;;2072259;28;20241;-70
2024/02/24 00:23:48;;;;;;;13.77;9.20;;;;;22.30;98388.00;;;;2071705;28;20225;-70
2024/02/24 00:24:48;;;;;;;13.53;8.13;;;;;22.30;98390.00;;;;2072297;28;20214;-70
2024/02/24 00:25:48;;;;;;;12.87;8.80;;;;;22.30;98394.00;;;;2061454;28;20226;-70
2024/02/24 00:26:49;;;;;;;16.73;9.20;;;;;22.30;98394.00;;;;2071385;28;20218;-70
2024/02/24 00:27:49;;;;;;;13.43;8.53;;;;;22.30;98391.00;;;;2071850;28;20690;-70
2024/02/24 00:28:49;;;;;;;13.97;8.27;;;;;22.30;98395.00;;;;2070739;28;20225;-70
2024/02/24 00:29:50;;;;;;;14.53;9.30;;;;;22.30;98391.00;;;;2072091;28;20678;-70
2024/02/24 00:30:50;;;;;;;13.63;8.77;;;;;22.30;98396.00;;;;2060929;28;20238;-76
2024/02/24 00:31:50;;;;;;;14.07;7.47;;;;;22.30;98392.00;;;;2072361;28;20574;-71
2024/02/24 00:32:51;;;;;;;12.10;7.93;;;;;22.30;98390.00;;;;2072415;28;20300;-71
2024/02/24 00:33:51;;;;;;;11.10;7.43;;;;;22.30;98386.00;;;;2070949;28;20210;-71
2024/02/24 00:34:51;;;;;;;16.67;9.37;;;;;22.30;98393.00;;;;2063193;28;20241;-71
2024/02/24 00:35:52;;;;;;;11.23;7.37;;;;;22.30;98394.00;;;;2044990;28;20258;-71
2024/02/24 00:36:52;;;;;;;11.27;7.70;;;;;22.30;98397.00;;;;2063235;28;20215;-70
2024/02/24 00:37:52;;;;;;;13.30;8.27;;;;;22.30;98386.00;;;;2062484;28;20310;-71
2024/02/24 00:38:53;;;;;;;11.10;7.37;;;;;22.30;98382.00;;;;2062915;28;20211;-70
2024/02/24 00:39:53;;;;;;;12.13;8.40;;;;;22.30;98358.00;;;;2063415;28;20265;-70
2024/02/24 00:40:53;;;;;;;11.00;7.57;;;;;22.20;98391.00;;;;2060724;28;20231;-71
2024/02/24 00:41:54;;;;;;;13.50;8.03;;;;;22.20;98394.00;;;;2071395;28;20670;-70
2024/02/24 00:42:54;;;;;;;10.67;7.50;;;;;22.20;98390.00;;;;2070786;28;20241;-71
2024/02/24 00:43:54;;;;;;;11.10;7.90;;;;;22.20;98387.00;;;;2072098;28;20216;-70
2024/02/24 00:44:55;;;;;;;12.07;7.17;;;;;22.20;98379.00;;;;2072237;28;20209;-70
2024/02/24 00:45:55;;;;;;;9.83;6.50;;;;;22.20;98383.00;;;;2060687;28;20284;-71
2024/02/24 00:46:55;;;;;;;12.67;7.70;;;;;22.20;98388.00;;;;2063335;28;20234;-70
2024/02/24 00:47:56;;;;;;;11.43;7.13;;;;;22.20;98376.00;;;;2062653;28;20250;-70
2024/02/24 00:48:56;;;;;;;10.90;7.40;;;;;22.20;98380.00;;;;2071482;28;20214;-71
2024/02/24 00:49:56;;;;;;;10.87;6.93;;;;;22.20;98379.00;;;;2070958;28;20261;-71
2024/02/24 00:50:56;;;;;;;9.90;7.17;;;;;22.20;98377.00;;;;2061969;28;20222;-71
2024/02/24 00:51:57;;;;;;;10.67;7.00;;;;;22.20;98387.00;;;;2072085;28;20214;-71
2024/02/24 00:52:57;;;;;;;11.10;6.87;;;;;22.20;98392.00;;;;2062752;28;20230;-70
2024/02/24 00:53:57;;;;;;;11.00;7.07;;;;;22.20;98397.00;;;;2063391;28;20211;-70
2024/02/24 00:54:59;;;;;;;11.40;6.97;;;;;22.20;98393.00;;;;2071142;28;20210;-70
2024/02/24 00:56:00;;;;;;;10.52;7.00;;;;;22.20;98392.00;;;;2062202;28;20314;-71
2024/02/24 00:57:00;;;;;;;9.40;6.10;;;;;22.20;98393.00;;;;2069502;28;20709;-70
2024/02/24 00:58:00;;;;;;;10.10;6.67;;;;;22.20;98379.00;;;;2071141;28;20899;-70
2024/02/24 00:59:01;;;;;;;9.50;6.60;;;;;22.20;98389.00;;;;2071293;28;20225;-70
2024/02/24 01:00:02;;;;;;;9.87;6.33;;;;;22.20;98383.00;;;;2070972;28;20230;-70
2024/02/24 01:01:03;;;;;;;10.47;6.23;;;;;22.20;98391.00;;;;2053266;28;20233;-70
2024/02/24 01:02:03;;;;;;;11.80;6.50;;;;;22.20;98402.00;;;;2061867;28;20585;-70
2024/02/24 01:03:03;;;;;;;10.30;6.40;;;;;22.20;98388.00;;;;2072073;28;20457;-71
2024/02/24 01:04:04;;;;;;;8.50;5.80;;;;;22.20;98393.00;;;;2072018;28;20273;-70
2024/02/24 01:05:04;;;;;;;10.20;5.90;;;;;22.20;98394.00;;;;2070874;28;20233;-71
2024/02/24 01:06:05;;;;;;;8.83;6.33;;;;;22.20;98395.00;;;;2058363;28;20218;-70
2024/02/24 01:07:06;;;;;;;9.30;6.03;;;;;22.10;98381.00;;;;2071002;28;20222;-70
2024/02/24 01:08:06;;;;;;;10.65;6.10;;;;;22.10;98399.00;;;;2071150;28;20218;-70
2024/02/24 01:09:07;;;;;;;9.10;5.80;;;;;22.10;98403.00;;;;2071101;28;20279;-70
2024/02/24 01:10:08;;;;;;;9.53;5.80;;;;;22.10;98397.00;;;;2071897;28;20647;-70
2024/02/24 01:11:10;;;;;;;10.00;5.63;;;;;22.10;98396.00;;;;2061845;28;20672;-70
2024/02/24 01:12:10;;;;;;;9.18;5.80;;;;;22.10;98390.00;;;;2061563;28;20222;-70
2024/02/24 01:13:10;;;;;;;9.60;5.53;;;;;22.10;98403.00;;;;2055180;28;20215;-70
2024/02/24 01:14:11;;;;;;;11.60;6.23;;;;;22.10;98410.00;;;;2054283;28;20334;-70
2024/02/24 01:15:11;;;;;;;8.70;5.20;;;;;22.10;98405.00;;;;2071449;28;20222;-70
2024/02/24 01:16:11;;;;;;;9.67;5.60;;;;;22.10;98398.00;;;;2062127;28;20233;-70
2024/02/24 01:17:13;;;;;;;9.63;5.57;;;;;22.10;98188.00;;;;2062457;28;20222;-70
2024/02/24 01:18:14;;;;;;;7.90;5.60;;;;;22.10;98395.00;;;;2054891;28;20227;-70
2024/02/24 01:19:14;;;;;;;7.60;4.80;;;;;22.10;98410.00;;;;2062485;28;20231;-70
2024/02/24 01:20:14;;;;;;;7.60;4.93;;;;;22.10;98400.00;;;;2071836;28;20233;-70
2024/02/24 01:21:15;;;;;;;8.20;5.27;;;;;22.10;98409.00;;;;2054154;28;20227;-70
2024/02/24 01:22:16;;;;;;;9.27;5.70;;;;;22.10;98408.00;;;;2065732;28;20284;-70
2024/02/24 01:23:16;;;;;;;11.20;5.22;;;;;22.10;98328.00;;;;2063850;28;20226;-70
2024/02/24 01:24:16;;;;;;;7.10;4.77;;;;;22.10;98404.00;;;;2062560;28;20742;-70
2024/02/24 01:25:17;;;;;;;8.50;5.03;;;;;22.10;98410.00;;;;2063021;28;20254;-70
2024/02/24 01:26:17;;;;;;;7.60;4.87;;;;;22.10;98418.00;;;;2060738;28;20312;-70
2024/02/24 01:27:17;;;;;;;8.93;4.90;;;;;22.10;98411.00;;;;2071826;28;20694;-70
2024/02/24 01:28:18;;;;;;;7.60;4.50;;;;;22.10;98415.00;;;;2063471;28;20223;-70
2024/02/24 01:29:18;;;;;;;7.53;4.67;;;;;22.10;98408.00;;;;2071307;28;20697;-70
2024/02/24 01:30:19;;;;;;;8.50;5.07;;;;;22.10;98394.00;;;;2063003;28;20223;-70
2024/02/24 01:31:19;;;;;;;7.67;5.00;;;;;22.10;98425.00;;;;2044596;28;20251;-70
2024/02/24 01:32:19;;;;;;;6.90;4.13;;;;;22.00;98395.00;;;;2063144;28;20215;-70
2024/02/24 01:33:20;;;;;;;5.97;4.10;;;;;22.00;98406.00;;;;2070733;28;20585;-70
2024/02/24 01:34:20;;;;;;;7.40;4.40;;;;;22.00;98409.00;;;;2071230;28;20585;-70
2024/02/24 01:35:20;;;;;;;8.97;4.83;;;;;22.10;98405.00;;;;2055033;28;20596;-70
2024/02/24 01:36:21;;;;;;;7.70;4.70;;;;;22.10;98408.00;;;;2044579;28;20584;-70
2024/02/24 01:37:21;;;;;;;9.07;4.30;;;;;22.00;98404.00;;;;2071779;28;20288;-70
2024/02/24 01:38:21;;;;;;;10.10;4.60;;;;;22.00;98407.00;;;;2070069;28;20836;-76
2024/02/24 01:39:22;;;;;;;6.70;3.93;;;;;22.00;98407.00;;;;2070508;28;20632;-75
2024/02/24 01:40:22;;;;;;;7.30;4.27;;;;;22.00;98399.00;;;;2071192;28;20609;-75
2024/02/24 01:41:22;;;;;;;6.70;4.30;;;;;22.00;98399.00;;;;2060751;28;20889;-71
2024/02/24 01:42:23;;;;;;;6.40;4.00;;;;;22.00;98396.00;;;;2071486;28;20596;-70
2024/02/24 01:43:24;;;;;;;5.97;3.70;;;;;22.00;98401.00;;;;2070557;28;20691;-71
2024/02/24 01:44:24;;;;;;;6.05;3.80;;;;;22.00;98403.00;;;;2064368;28;20221;-71
2024/02/24 01:45:25;;;;;;;7.03;4.23;;;;;22.00;98400.00;;;;2071484;28;20217;-70
2024/02/24 01:46:25;;;;;;;7.43;4.43;;;;;22.00;98401.00;;;;2061716;28;20218;-71
2024/02/24 01:47:26;;;;;;;7.20;4.20;;;;;22.00;98392.00;;;;2071519;28;20218;-70
2024/02/24 01:48:26;;;;;;;8.60;4.40;;;;;22.00;98398.00;;;;2070541;28;20712;-70
2024/02/24 01:49:26;;;;;;;5.93;3.70;;;;;22.00;98400.00;;;;2071727;28;20214;-70
2024/02/24 01:50:27;;;;;;;5.20;3.27;;;;;22.00;98398.00;;;;2055306;28;20219;-70
2024/02/24 01:51:27;;;;;;;6.33;3.53;;;;;22.00;98393.00;;;;2061012;28;20344;-70
2024/02/24 01:52:27;;;;;;;4.70;3.23;;;;;22.00;98399.00;;;;2071711;28;20248;-70
2024/02/24 01:53:28;;;;;;;7.10;3.80;;;;;22.00;98393.00;;;;2062229;28;20211;-70
2024/02/24 01:54:29;;;;;;;6.35;3.92;;;;;22.00;98389.00;;;;2054850;28;20221;-70
2024/02/24 01:55:29;;;;;;;6.00;3.70;;;;;22.00;98396.00;;;;2052946;28;20222;-70
2024/02/24 01:56:29;;;;;;;6.40;3.87;;;;;22.00;98390.00;;;;2067700;28;20218;-70
2024/02/24 01:57:33;;;;;;;5.17;3.30;;;;;22.00;98402.00;;;;2071453;28;20234;-70
2024/02/24 01:58:37;;;;;;;7.40;3.67;;;;;22.00;98402.00;;;;2069691;28;20252;-70
2024/02/24 01:59:37;;;;;;;5.57;3.70;;;;;22.00;98381.00;;;;2062664;28;20214;-70
2024/02/24 02:00:37;;;;;;;6.53;3.43;;;;;22.00;98405.00;;;;2044689;28;20230;-70
2024/02/24 02:01:38;;;;;;;5.03;3.00;;;;;21.90;98399.00;;;;2061984;28;20213;-70
2024/02/24 02:02:39;;;;;;;5.87;3.30;;;;;21.90;98403.00;;;;2062700;28;20251;-70
2024/02/24 02:03:39;;;;;;;5.55;3.17;;;;;22.00;98398.00;;;;2061748;28;20215;-70
2024/02/24 02:04:39;;;;;;;4.80;3.20;;;;;21.90;98399.00;;;;2071811;28;20234;-70
2024/02/24 02:05:40;;;;;;;5.40;2.90;;;;;21.90;98401.00;;;;2052169;28;20238;-70
2024/02/24 02:06:40;;;;;;;5.40;3.20;;;;;21.90;98406.00;;;;2062849;28;20298;-70
2024/02/24 02:07:41;;;;;;;7.77;3.13;;;;;21.90;98399.00;;;;2068126;28;20601;-71
2024/02/24 02:08:41;;;;;;;5.43;2.93;;;;;21.90;98397.00;;;;2070133;28;20602;-70
2024/02/24 02:09:57;;;;;;;5.90;3.10;;;;;21.90;98408.00;;;;2071546;28;20574;-70
2024/02/24 02:10:58;;;;;;;6.13;2.58;;;;;21.90;98406.00;;;;2052138;28;20772;-71
2024/02/24 02:11:58;;;;;;;5.63;3.27;;;;;21.90;98398.00;;;;2062579;28;20293;-71
2024/02/24 02:12:58;;;;;;;4.83;3.03;;;;;21.90;98403.00;;;;2070715;28;20234;-71
2024/02/24 02:13:59;;;;;;;4.93;3.20;;;;;21.90;98407.00;;;;2071485;28;20218;-71
2024/02/24 02:14:59;;;;;;;4.90;2.77;;;;;21.90;98403.00;;;;2071453;28;20570;-70
2024/02/24 02:16:00;;;;;;;4.50;2.63;;;;;21.90;98411.00;;;;2060762;28;20214;-70
2024/02/24 02:17:00;;;;;;;5.07;3.10;;;;;21.90;98405.00;;;;2071567;28;20213;-70
2024/02/24 02:18:00;;;;;;;5.87;3.30;;;;;21.90;98402.00;;;;2067784;28;20222;-71
2024/02/24 02:19:00;;;;;;;5.30;3.27;;;;;21.90;98394.00;;;;2070902;28;20221;-71
2024/02/24 02:20:01;;;;;;;5.00;3.20;;;;;21.90;98406.00;;;;2062111;28;20210;-71
2024/02/24 02:21:02;;;;;;;5.77;2.80;;;;;21.90;98396.00;;;;2051004;28;20223;-71
2024/02/24 02:22:02;;;;;;;5.00;2.67;;;;;21.90;98400.00;;;;2054577;28;20593;-71
2024/02/24 02:23:03;;;;;;;4.23;2.30;;;;;21.90;98400.00;;;;2036172;28;20276;-70
2024/02/24 02:24:03;;;;;;;5.03;2.80;;;;;21.90;98396.00;;;;2054415;28;20257;-71
2024/02/24 02:25:04;;;;;;;3.73;2.30;;;;;21.90;98401.00;;;;2070637;28;20222;-70
2024/02/24 02:26:04;;;;;;;4.77;2.70;;;;;21.90;98406.00;;;;2052974;28;20274;-70
2024/02/24 02:27:06;;;;;;;3.83;2.60;;;;;21.90;98364.00;;;;2062277;28;20247;-70
2024/02/24 02:28:07;;;;;;;4.93;2.53;;;;;21.90;98403.00;;;;2069961;28;20242;-70
2024/02/24 02:29:07;;;;;;;4.30;2.47;;;;;21.90;98405.00;;;;2071179;28;20226;-70
2024/02/24 02:30:08;;;;;;;4.60;2.40;;;;;21.80;98403.00;;;;2070887;28;20217;-70
2024/02/24 02:31:08;;;;;;;4.40;2.73;;;;;21.90;98405.00;;;;2061316;28;20696;-70
2024/02/24 02:32:08;;;;;;;6.00;3.23;;;;;21.90;98401.00;;;;2071418;28;20206;-71
2024/02/24 02:33:09;;;;;;;4.77;2.53;;;;;21.80;98408.00;;;;2070505;28;20229;-70
2024/02/24 02:34:09;;;;;;;4.33;2.73;;;;;21.80;98411.00;;;;2071304;28;20222;-70
2024/02/24 02:35:10;;;;;;;5.30;2.90;;;;;21.80;98413.00;;;;2070335;28;20273;-70
2024/02/24 02:36:11;;;;;;;4.35;2.22;;;;;21.90;98418.00;;;;2061531;28;20301;-71
2024/02/24 02:37:11;;;;;;;3.73;2.13;;;;;21.80;98409.00;;;;2070336;28;20209;-70
2024/02/24 02:38:11;;;;;;;4.10;2.57;;;;;21.80;98411.00;;;;2068512;28;20269;-70
2024/02/24 02:39:12;;;;;;;4.23;2.20;;;;;21.80;98412.00;;;;2071224;28;20226;-70
2024/02/24 02:40:12;;;;;;;4.10;2.37;;;;;21.80;98407.00;;;;2070214;28;20214;-70
2024/02/24 02:41:13;;;;;;;4.80;2.13;;;;;21.80;98408.00;;;;2056859;28;20229;-70
2024/02/24 02:42:13;;;;;;;3.33;2.03;;;;;21.80;98406.00;;;;2070308;28;20222;-70
2024/02/24 02:43:13;;;;;;;4.77;2.47;;;;;21.80;98408.00;;;;2063898;28;20295;-70
2024/02/24 02:44:14;;;;;;;4.13;2.20;;;;;21.80;98400.00;;;;2062397;28;20273;-70
2024/02/24 02:45:14;;;;;;;4.80;2.40;;;;;21.80;98403.00;;;;2060603;28;20219;-70
2024/02/24 02:46:15;;;;;;;4.07;2.17;;;;;21.80;98410.00;;;;2060079;28;20477;-70
2024/02/24 02:47:15;;;;;;;4.40;2.40;;;;;21.80;98413.00;;;;2065478;28;20222;-70
2024/02/24 02:48:15;;;;;;;3.20;1.83;;;;;21.80;98406.00;;;;2068474;28;20226;-71
2024/02/24 02:49:16;;;;;;;4.23;2.40;;;;;21.80;98413.00;;;;2071136;28;20234;-70
2024/02/24 02:50:17;;;;;;;5.43;2.23;;;;;21.80;98409.00;;;;2065032;28;20243;-70
2024/02/24 02:51:17;;;;;;;3.70;1.80;;;;;21.80;98416.00;;;;2060422;28;20230;-70
2024/02/24 02:52:17;;;;;;;4.10;2.10;;;;;21.80;98405.00;;;;2069315;28;20214;-70
2024/02/24 02:53:18;;;;;;;3.33;1.90;;;;;21.80;98410.00;;;;2070231;28;20365;-70
2024/02/24 02:54:18;;;;;;;3.90;1.93;;;;;21.80;98408.00;;;;2071253;28;20588;-70
2024/02/24 02:55:20;;;;;;;4.23;2.30;;;;;21.80;98410.00;;;;2064503;28;20480;-70
2024/02/24 02:56:22;;;;;;;4.00;2.53;;;;;21.80;98411.00;;;;2060668;28;20222;-70
2024/02/24 02:57:23;;;;;;;3.85;2.15;;;;;21.80;98404.00;;;;2070364;28;20214;-70
2024/02/24 02:58:23;;;;;;;3.70;1.73;;;;;21.70;98405.00;;;;2069323;28;20309;-70
2024/02/24 02:59:24;;;;;;;3.23;1.97;;;;;21.80;98407.00;;;;2071203;28;20275;-70
2024/02/24 03:00:24;;;;;;;3.80;2.03;;;;;21.80;98411.00;;;;2069946;28;20229;-70
2024/02/24 03:01:24;;;;;;;4.33;1.77;;;;;21.80;98408.00;;;;2060936;28;20222;-70
2024/02/24 03:02:25;;;;;;;3.37;1.90;;;;;21.70;98413.00;;;;2070292;28;20229;-70
2024/02/24 03:03:25;;;;;;;3.83;2.00;;;;;21.70;98412.00;;;;2071199;28;20226;-70
2024/02/24 03:04:25;;;;;;;4.07;2.30;;;;;21.70;98427.00;;;;2070954;28;20265;-70
2024/02/24 03:05:26;;;;;;;3.00;1.53;;;;;21.80;98423.00;;;;2062405;28;20226;-70
2024/02/24 03:06:26;;;;;;;4.40;2.13;;;;;21.80;98419.00;;;;2060502;28;20224;-70
2024/02/24 03:07:27;;;;;;;3.50;2.17;;;;;21.80;98413.00;;;;2064371;28;20226;-70
2024/02/24 03:08:27;;;;;;;3.93;1.97;;;;;21.80;98426.00;;;;2068543;28;20218;-70
2024/02/24 03:09:27;;;;;;;3.57;1.80;;;;;21.70;98419.00;;;;2067697;28;20256;-70
2024/02/24 03:10:29;;;;;;;3.27;1.63;;;;;21.70;98420.00;;;;2065297;28;20309;-70
2024/02/24 03:11:30;;;;;;;3.65;1.90;;;;;21.70;98222.00;;;;2070967;28;20225;-70
2024/02/24 03:12:30;;;;;;;3.17;1.58;;;;;21.70;98419.00;;;;2069958;28;20221;-70
2024/02/24 03:13:31;;;;;;;3.50;1.63;;;;;21.70;98415.00;;;;2071018;28;20220;-70
2024/02/24 03:14:31;;;;;;;3.17;1.90;;;;;21.70;98429.00;;;;2070181;28;20210;-71
2024/02/24 03:15:32;;;;;;;3.33;1.63;;;;;21.70;98418.00;;;;2060576;28;20507;-71
2024/02/24 03:16:32;;;;;;;3.40;1.77;;;;;21.70;98421.00;;;;2070200;28;20209;-71
2024/02/24 03:17:32;;;;;;;4.13;1.90;;;;;21.70;98416.00;;;;2061972;28;20230;-71
2024/02/24 03:18:33;;;;;;;3.43;1.67;;;;;21.70;98411.00;;;;2061755;28;20281;-71
2024/02/24 03:19:33;;;;;;;3.07;1.73;;;;;21.70;98422.00;;;;2070209;28;20581;-71
2024/02/24 03:20:33;;;;;;;2.50;1.30;;;;;21.70;98422.00;;;;2060974;28;20705;-71
2024/02/24 03:21:34;;;;;;;3.83;2.00;;;;;21.70;98424.00;;;;2069785;28;20329;-70
2024/02/24 03:22:34;;;;;;;3.10;1.37;;;;;21.70;98420.00;;;;2061717;28;20252;-70
2024/02/24 03:23:34;;;;;;;3.50;1.83;;;;;21.70;98416.00;;;;2071079;28;20234;-71
2024/02/24 03:24:35;;;;;;;3.90;1.80;;;;;21.70;98397.00;;;;2066781;28;20210;-71
2024/02/24 03:25:35;;;;;;;3.43;1.90;;;;;21.70;98417.00;;;;2057639;28;20214;-71
2024/02/24 03:26:35;;;;;;;2.90;1.53;;;;;21.70;98423.00;;;;2064805;28;20210;-71
2024/02/24 03:27:36;;;;;;;4.17;1.50;;;;;21.70;98425.00;;;;2070376;28;20273;-70
2024/02/24 03:28:36;;;;;;;3.77;1.83;;;;;21.70;98414.00;;;;2070589;28;20210;-70
2024/02/24 03:29:36;;;;;;;2.83;1.50;;;;;21.70;98417.00;;;;2068780;28;20275;-70
2024/02/24 03:30:37;;;;;;;3.50;1.90;;;;;21.70;98408.00;;;;2051124;28;20210;-70
2024/02/24 03:31:37;;;;;;;3.47;1.47;;;;;21.70;98421.00;;;;2061567;28;20231;-71
2024/02/24 03:32:37;;;;;;;3.07;1.67;;;;;21.70;98428.00;;;;2052968;28;20324;-70
2024/02/24 03:33:37;;;;;;;3.43;1.40;;;;;21.70;98366.00;;;;2053676;28;20239;-72
2024/02/24 03:34:38;;;;;;;3.60;1.90;;;;;21.70;98415.00;;;;2054310;28;20291;-71
2024/02/24 03:35:39;;;;;;;2.70;1.53;;;;;21.70;98422.00;;;;2052302;28;20227;-70
2024/02/24 03:36:39;;;;;;;3.20;1.63;;;;;21.70;98425.00;;;;2069556;28;20241;-70
2024/02/24 03:37:40;;;;;;;2.57;1.40;;;;;21.70;98421.00;;;;2070457;28;20214;-70
2024/02/24 03:38:41;;;;;;;3.33;1.60;;;;;21.70;98421.00;;;;2069687;28;20908;-70
2024/02/24 03:39:41;;;;;;;2.43;1.30;;;;;21.70;98425.00;;;;2071223;28;20214;-70
2024/02/24 03:40:41;;;;;;;3.63;1.80;;;;;21.70;98426.00;;;;2060802;28;20241;-70
2024/02/24 03:41:42;;;;;;;2.33;1.30;;;;;21.70;98420.00;;;;2069648;28;20214;-70
2024/02/24 03:42:42;;;;;;;3.73;1.60;;;;;21.70;98430.00;;;;2070340;28;20237;-70
2024/02/24 03:43:42;;;;;;;2.30;1.30;;;;;21.70;98423.00;;;;2068252;28;20285;-70
2024/02/24 03:44:43;;;;;;;2.50;1.10;;;;;21.60;98435.00;;;;2070955;28;20558;-70
2024/02/24 03:45:43;;;;;;;3.50;1.70;;;;;21.60;98422.00;;;;2060820;28;21124;-70
2024/02/24 03:46:44;;;;;;;3.37;1.10;;;;;21.70;98430.00;;;;2068826;28;20682;-70
2024/02/24 03:47:44;;;;;;;2.37;1.13;;;;;21.70;98426.00;;;;2070012;28;20214;-70
2024/02/24 03:48:46;;;;;;;3.20;1.33;;;;;21.70;98428.00;;;;2069493;28;20274;-70
2024/02/24 03:49:46;;;;;;;3.10;1.50;;;;;21.60;98425.00;;;;2070405;28;20633;-70
2024/02/24 03:50:46;;;;;;;3.30;1.47;;;;;21.70;98428.00;;;;2059306;28;20268;-70
2024/02/24 03:51:46;;;;;;;3.37;1.27;;;;;21.60;98434.00;;;;2070074;28;20214;-70
2024/02/24 03:52:48;;;;;;;2.23;1.10;;;;;21.60;98433.00;;;;2070893;28;20241;-70
2024/02/24 03:53:48;;;;;;;2.90;1.48;;;;;21.60;98377.00;;;;2068186;28;20260;-70
2024/02/24 03:54:48;;;;;;;3.20;1.27;;;;;21.60;98427.00;;;;2065401;28;20280;-70
2024/02/24 03:55:51;;;;;;;3.40;1.53;;;;;21.60;98427.00;;;;2060886;28;20226;-70
2024/02/24 03:56:52;;;;;;;2.97;1.42;;;;;21.60;98429.00;;;;2069365;28;20204;-70
2024/02/24 03:57:52;;;;;;;2.93;0.90;;;;;21.60;98434.00;;;;2072534;28;20202;-70
2024/02/24 03:58:52;;;;;;;2.57;1.23;;;;;21.60;98433.00;;;;2070580;28;20213;-70
2024/02/24 03:59:54;;;;;;;3.03;1.03;;;;;21.60;98447.00;;;;2072723;28;20248;-70
2024/02/24 04:00:56;;;;;;;4.65;1.42;;;;;21.60;98440.00;;;;2061665;28;20226;-70
2024/02/24 04:01:56;;;;;;;2.83;0.90;;;;;21.60;98442.00;;;;2072583;28;20740;-70
2024/02/24 04:02:57;;;;;;;2.30;1.00;;;;;21.60;98439.00;;;;2072511;28;20226;-70
2024/02/24 04:03:57;;;;;;;1.93;0.83;;;;;21.60;98299.00;;;;2071788;28;20217;-70
2024/02/24 04:04:57;;;;;;;2.80;1.20;;;;;21.60;98448.00;;;;2072600;28;20226;-70
2024/02/24 04:05:58;;;;;;;3.43;1.60;;;;;21.60;98444.00;;;;2052754;28;20229;-70
2024/02/24 04:06:58;;;;;;;2.63;1.23;;;;;21.60;98445.00;;;;2061550;28;20297;-70
2024/02/24 04:07:58;;;;;;;2.63;1.20;;;;;21.60;98449.00;;;;2069895;28;20233;-70
2024/02/24 04:08:59;;;;;;;2.10;1.10;;;;;21.60;98459.00;;;;2071232;28;20238;-70
2024/02/24 04:09:59;;;;;;;3.53;1.57;;;;;21.60;98452.00;;;;2072605;28;20228;-70
2024/02/24 04:11:01;;;;;;;2.27;1.10;;;;;21.60;98458.00;;;;2061941;28;20214;-70
2024/02/24 04:12:01;;;;;;;2.15;0.98;;;;;21.60;98463.00;;;;2061983;28;20219;-70
2024/02/24 04:13:02;;;;;;;2.50;1.10;;;;;21.60;98453.00;;;;2063501;28;20333;-70
2024/02/24 04:14:02;;;;;;;2.10;0.90;;;;;21.60;98457.00;;;;2070982;28;20292;-70
2024/02/24 04:15:03;;;;;;;3.83;1.13;;;;;21.60;98458.00;;;;2063700;28;21222;-70
2024/02/24 04:16:03;;;;;;;3.33;1.00;;;;;21.60;98462.00;;;;2052743;28;20226;-70
2024/02/24 04:17:04;;;;;;;2.37;1.00;;;;;21.60;98460.00;;;;2072331;28;20230;-70
2024/02/24 04:18:04;;;;;;;2.60;1.03;;;;;21.60;98458.00;;;;2071150;28;20868;-70
2024/02/24 04:19:05;;;;;;;2.00;0.90;;;;;21.60;98466.00;;;;2068641;28;20325;-70
2024/02/24 04:20:05;;;;;;;3.03;1.17;;;;;21.60;98458.00;;;;2072529;28;20272;-71
2024/02/24 04:21:06;;;;;;;2.40;1.07;;;;;21.60;98457.00;;;;2060926;28;20222;-70
2024/02/24 04:22:06;;;;;;;2.67;1.30;;;;;21.60;98454.00;;;;2072253;28;20453;-70
2024/02/24 04:23:07;;;;;;;1.90;0.90;;;;;21.60;98461.00;;;;2070332;28;20567;-77
2024/02/24 04:24:07;;;;;;;1.90;0.93;;;;;21.60;98464.00;;;;2061921;28;20227;-71
2024/02/24 04:25:08;;;;;;;2.90;1.23;;;;;21.60;98460.00;;;;2063629;28;20770;-71
2024/02/24 04:26:08;;;;;;;2.40;1.03;;;;;21.50;98466.00;;;;2061587;28;20218;-71
2024/02/24 04:27:09;;;;;;;3.30;1.10;;;;;21.60;98473.00;;;;2072115;28;20221;-71
2024/02/24 04:28:09;;;;;;;2.57;0.97;;;;;21.60;98461.00;;;;2071074;28;20222;-71
2024/02/24 04:29:09;;;;;;;2.10;0.90;;;;;21.60;98475.00;;;;2072191;28;20218;-71
2024/02/24 04:30:10;;;;;;;2.33;0.90;;;;;21.60;98460.00;;;;2070054;28;20225;-71
2024/02/24 04:31:10;;;;;;;2.60;1.03;;;;;21.50;98470.00;;;;2059232;28;20235;-71
2024/02/24 04:32:10;;;;;;;2.27;1.10;;;;;21.50;98469.00;;;;2063610;28;20340;-71
2024/02/24 04:33:11;;;;;;;3.43;1.03;;;;;21.50;98480.00;;;;2062781;28;20223;-70
2024/02/24 04:34:11;;;;;;;2.10;0.80;;;;;21.50;98467.00;;;;2072306;28;20275;-71
2024/02/24 04:35:11;;;;;;;2.23;0.87;;;;;21.50;98468.00;;;;2072080;28;20225;-71
2024/02/24 04:36:12;;;;;;;2.70;1.20;;;;;21.50;98431.00;;;;2060650;28;20252;-71
2024/02/24 04:37:12;;;;;;;2.30;1.03;;;;;21.50;98460.00;;;;2063552;28;20222;-70
2024/02/24 04:38:13;;;;;;;2.30;1.00;;;;;21.50;98461.00;;;;2053962;28;20688;-71
2024/02/24 04:39:14;;;;;;;2.00;0.90;;;;;21.50;98474.00;;;;2062113;28;20342;-71
2024/02/24 04:40:14;;;;;;;1.95;0.73;;;;;21.50;98464.00;;;;2070963;28;20222;-70
2024/02/24 04:41:15;;;;;;;1.93;0.77;;;;;21.50;98467.00;;;;2057266;28;20225;-70
2024/02/24 04:42:15;;;;;;;2.03;1.03;;;;;21.50;98472.00;;;;2069118;28;20233;-70
2024/02/24 04:43:15;;;;;;;2.27;0.87;;;;;21.50;98473.00;;;;2069253;28;20237;-70
2024/02/24 04:44:16;;;;;;;2.50;1.00;;;;;21.50;98474.00;;;;2072450;28;20225;-70
2024/02/24 04:45:16;;;;;;;2.27;0.63;;;;;21.50;98477.00;;;;2071673;28;20238;-70
2024/02/24 04:46:17;;;;;;;1.60;0.70;;;;;21.50;98484.00;;;;2058515;28;20256;-70
2024/02/24 04:47:22;;;;;;;1.83;0.80;;;;;21.50;98493.00;;;;2072219;28;20734;-70
2024/02/24 04:48:22;;;;;;;2.80;0.80;;;;;21.50;98484.00;;;;2070741;28;20230;-71
2024/02/24 04:49:23;;;;;;;3.03;0.80;;;;;21.50;98491.00;;;;2072113;28;20761;-70
2024/02/24 04:50:23;;;;;;;2.20;0.80;;;;;21.50;98491.00;;;;2074728;28;20217;-70
2024/02/24 04:51:23;;;;;;;3.30;0.90;;;;;21.50;98491.00;;;;2062833;28;20298;-70
2024/02/24 04:52:24;;;;;;;2.43;0.80;;;;;21.50;98490.00;;;;2070896;28;20221;-70
2024/02/24 04:53:24;;;;;;;2.60;1.00;;;;;21.50;98485.00;;;;2070494;28;20234;-70
2024/02/24 04:54:25;;;;;;;2.03;0.73;;;;;21.50;98484.00;;;;2072318;28;20461;-70
2024/02/24 04:55:25;;;;;;;2.40;1.00;;;;;21.50;98490.00;;;;2068895;28;20214;-71
2024/02/24 04:56:25;;;;;;;1.80;0.80;;;;;21.50;98460.00;;;;2053422;28;20265;-70
2024/02/24 04:57:26;;;;;;;1.83;0.90;;;;;21.50;98491.00;;;;2052746;28;22107;-70
2024/02/24 04:58:27;;;;;;;2.10;0.90;;;;;21.50;98498.00;;;;2061378;28;20218;-70
2024/02/24 04:59:27;;;;;;;2.17;0.90;;;;;21.50;98495.00;;;;2062582;28;20219;-70
2024/02/24 05:00:28;;;;;;;1.90;0.70;;;;;21.50;98490.00;;;;2060016;28;20282;-72
2024/02/24 05:01:28;;;;;;;1.50;0.63;;;;;21.50;98479.00;;;;2065272;28;20222;-70
2024/02/24 05:02:28;;;;;;;1.97;0.70;;;;;21.50;98491.00;;;;2071195;28;20230;-70